Time;durP1;ratioP1;P1;durP2;ratioP2;P2;SDS_P1;SDS_P2;PMS_P1;PMS_P2;Temp;Humidity;BMP_temperature;BMP_pressure;BME280_temperature;BME280_humidity;BME280_pressure;Samples;Min_cycle;Max_cycle;Signal;HPM_P1;HPM_P2
2022/07/27 00:01:40;;;;;;;0.17;0.17;;;17.90;92.00;;;;;;4952438;28;20119;-82
2022/07/27 00:04:05;;;;;;;0.97;0.40;;;17.80;92.30;;;;;;4951220;29;20042;-80
2022/07/27 00:06:31;;;;;;;0.10;0.10;;;17.80;92.50;;;;;;4945402;28;20038;-82
2022/07/27 00:08:56;;;;;;;1.20;0.63;;;17.80;92.60;;;;;;4950120;29;20043;-82
2022/07/27 00:11:22;;;;;;;0.10;0.10;;;17.70;92.50;;;;;;4934619;29;20150;-81
2022/07/27 00:13:48;;;;;;;0.10;0.10;;;17.70;93.00;;;;;;4934520;29;20101;-82
2022/07/27 00:16:13;;;;;;;4.10;1.70;;;17.70;93.00;;;;;;4950622;29;20139;-82
2022/07/27 00:18:39;;;;;;;2.03;0.57;;;17.80;93.00;;;;;;4950533;28;20450;-82
2022/07/27 00:21:05;;;;;;;0.27;0.27;;;17.70;93.40;;;;;;4947945;29;20038;-81
2022/07/27 00:23:31;;;;;;;0.13;0.07;;;17.60;93.70;;;;;;4943015;28;20035;-80
2022/07/27 00:25:56;;;;;;;0.20;0.20;;;17.70;93.60;;;;;;4947753;29;20031;-81
2022/07/27 00:28:22;;;;;;;0.10;0.10;;;17.60;93.60;;;;;;4950501;29;20035;-80
2022/07/27 00:30:48;;;;;;;0.10;0.10;;;17.60;94.00;;;;;;4950235;29;20053;-81
2022/07/27 00:33:14;;;;;;;0.00;0.00;;;17.50;94.40;;;;;;4950288;29;20128;-81
2022/07/27 00:35:39;;;;;;;0.10;0.10;;;17.40;94.80;;;;;;4950357;28;20035;-80
2022/07/27 00:38:05;;;;;;;0.73;0.67;;;17.40;95.00;;;;;;4949796;29;20074;-82
2022/07/27 00:40:31;;;;;;;0.03;0.03;;;17.50;94.90;;;;;;4949027;28;20042;-82
2022/07/27 00:42:56;;;;;;;0.10;0.10;;;17.40;95.50;;;;;;4933805;29;20493;-82
2022/07/27 00:45:22;;;;;;;0.13;0.13;;;17.30;95.80;;;;;;4934240;29;20122;-82
2022/07/27 00:47:48;;;;;;;0.33;0.20;;;17.40;96.00;;;;;;4949687;29;20067;-82
2022/07/27 00:50:13;;;;;;;0.20;0.20;;;17.30;96.30;;;;;;4948559;29;20054;-80
2022/07/27 00:52:41;;;;;;;0.10;0.10;;;17.20;96.70;;;;;;4948510;29;20055;-80
2022/07/27 00:55:07;;;;;;;0.10;0.10;;;17.10;97.00;;;;;;4951017;28;20731;-81
2022/07/27 00:57:33;;;;;;;0.30;0.30;;;17.20;97.10;;;;;;4948943;29;20039;-81
2022/07/27 00:59:59;;;;;;;0.27;0.27;;;17.10;97.60;;;;;;4949083;28;20502;-81
2022/07/27 01:02:27;;;;;;;0.00;0.00;;;17.20;97.50;;;;;;4949616;28;20038;-80
2022/07/27 01:04:53;;;;;;;0.10;0.10;;;17.20;97.40;;;;;;4950216;28;20069;-80
2022/07/27 01:07:20;;;;;;;0.10;0.10;;;17.20;97.40;;;;;;4944910;29;20442;-80
2022/07/27 01:09:57;;;;;;;;;;;17.20;97.20;;;;;;4943809;29;20038;-80
2022/07/27 01:12:29;;;;;;;0.17;0.17;;;17.30;97.10;;;;;;4948259;29;19922;-80
2022/07/27 01:14:56;;;;;;;0.47;0.43;;;17.30;97.00;;;;;;4947855;29;20031;-80
2022/07/27 01:17:23;;;;;;;0.00;0.00;;;17.20;97.50;;;;;;4928971;29;20066;-80
2022/07/27 01:19:49;;;;;;;3.22;0.73;;;17.30;97.70;;;;;;4947079;29;20109;-80
2022/07/27 01:22:15;;;;;;;0.20;0.20;;;17.30;97.90;;;;;;4945380;29;20117;-79
2022/07/27 01:24:41;;;;;;;0.00;0.00;;;17.30;98.20;;;;;;4914533;29;20027;-80
2022/07/27 01:27:07;;;;;;;0.10;0.10;;;17.20;97.90;;;;;;4946701;29;20063;-80
2022/07/27 01:29:34;;;;;;;0.10;0.10;;;17.30;97.70;;;;;;4947639;29;20035;-80
2022/07/27 01:32:00;;;;;;;0.10;0.10;;;17.30;97.60;;;;;;4930818;29;20506;-80
2022/07/27 01:34:26;;;;;;;0.30;0.30;;;17.30;97.30;;;;;;4946848;29;20101;-80
2022/07/27 01:36:52;;;;;;;0.40;0.13;;;17.20;97.40;;;;;;4928741;29;20466;-81
2022/07/27 01:39:18;;;;;;;8.25;0.20;;;17.30;97.40;;;;;;4913705;29;20091;-81
2022/07/27 01:41:45;;;;;;;0.00;0.00;;;17.20;97.70;;;;;;4946177;28;20435;-81
2022/07/27 01:44:11;;;;;;;0.17;0.13;;;17.20;97.90;;;;;;4947476;29;20419;-81
2022/07/27 01:46:36;;;;;;;0.17;0.10;;;17.20;98.10;;;;;;4946521;29;20035;-81
2022/07/27 01:49:03;;;;;;;0.10;0.10;;;17.20;98.00;;;;;;4946440;29;20039;-80
2022/07/27 01:51:29;;;;;;;0.35;0.35;;;17.20;98.00;;;;;;4943884;29;20078;-80
2022/07/27 01:53:54;;;;;;;0.20;0.20;;;17.20;98.50;;;;;;4947243;29;20443;-80
2022/07/27 01:56:20;;;;;;;0.10;0.10;;;17.10;99.00;;;;;;4946029;29;20042;-79
2022/07/27 01:58:46;;;;;;;0.20;0.20;;;17.00;99.10;;;;;;4947803;28;20522;-80
2022/07/27 02:01:12;;;;;;;0.08;0.08;;;16.90;99.50;;;;;;4948788;28;20035;-81
2022/07/27 02:03:37;;;;;;;0.00;0.00;;;16.90;99.40;;;;;;4947044;29;20038;-80
2022/07/27 02:06:04;;;;;;;0.20;0.20;;;16.80;99.90;;;;;;4940220;29;20023;-80
2022/07/27 02:08:30;;;;;;;0.30;0.30;;;16.80;99.90;;;;;;4929559;29;20078;-80
2022/07/27 02:13:46;;;;;;;0.05;0.05;;;16.70;99.90;;;;;;4943994;29;20047;-80
2022/07/27 02:16:16;;;;;;;0.20;0.20;;;16.60;99.90;;;;;;4939293;29;20456;-80
2022/07/27 02:18:42;;;;;;;0.00;0.00;;;16.60;99.90;;;;;;4944228;28;20047;-79
2022/07/27 02:21:09;;;;;;;0.08;0.08;;;16.60;99.90;;;;;;4948361;29;20065;-80
2022/07/27 02:23:35;;;;;;;;;;;16.60;99.90;;;;;;4930466;29;20042;-80
2022/07/27 02:26:01;;;;;;;0.15;0.15;;;16.50;99.90;;;;;;4945222;29;20022;-80
2022/07/27 02:28:27;;;;;;;0.20;0.20;;;16.50;99.90;;;;;;4946377;29;20094;-80
2022/07/27 02:30:53;;;;;;;0.00;0.00;;;16.50;99.90;;;;;;4945581;29;20043;-80
2022/07/27 02:33:18;;;;;;;0.10;0.10;;;16.50;99.90;;;;;;4945567;29;20031;-80
2022/07/27 02:35:44;;;;;;;0.10;0.10;;;16.40;99.90;;;;;;4908612;29;20038;-80
2022/07/27 02:38:10;;;;;;;0.38;0.38;;;16.40;99.90;;;;;;4945577;29;20039;-81
2022/07/27 02:40:36;;;;;;;0.17;0.17;;;16.30;99.90;;;;;;4944848;29;20031;-81
2022/07/27 02:43:01;;;;;;;0.22;0.22;;;16.30;99.90;;;;;;4945186;29;20360;-79
2022/07/27 02:45:27;;;;;;;0.10;0.10;;;16.20;99.90;;;;;;4945411;29;20039;-82
2022/07/27 02:47:53;;;;;;;0.10;0.10;;;16.30;99.90;;;;;;4946083;29;20498;-82
2022/07/27 02:50:18;;;;;;;0.10;0.10;;;16.20;99.90;;;;;;4933735;29;20030;-81
2022/07/27 02:52:44;;;;;;;0.10;0.10;;;16.20;99.90;;;;;;4946467;29;20039;-80
2022/07/27 02:55:10;;;;;;;0.17;0.17;;;16.20;99.90;;;;;;4947067;29;20811;-81
2022/07/27 02:57:39;;;;;;;0.10;0.10;;;16.20;99.90;;;;;;4946043;29;20035;-83
2022/07/27 03:00:10;;;;;;;0.10;0.10;;;16.10;99.90;;;;;;4951821;28;20524;-82
2022/07/27 03:02:37;;;;;;;0.08;0.08;;;16.10;99.90;;;;;;4943650;29;20023;-82
2022/07/27 03:05:04;;;;;;;0.17;0.17;;;16.00;99.90;;;;;;4945024;29;20027;-82
2022/07/27 03:07:30;;;;;;;0.45;0.45;;;16.00;99.90;;;;;;4944911;29;20039;-83
2022/07/27 03:09:56;;;;;;;0.10;0.10;;;16.00;99.90;;;;;;4944062;29;20069;-81
2022/07/27 03:12:21;;;;;;;0.13;0.13;;;16.10;99.90;;;;;;4926985;29;20035;-82
2022/07/27 03:14:47;;;;;;;0.43;0.40;;;16.00;99.90;;;;;;4945456;29;20035;-82
2022/07/27 03:17:12;;;;;;;0.10;0.10;;;15.80;99.90;;;;;;4927911;29;20549;-81
2022/07/27 03:19:38;;;;;;;0.00;0.00;;;15.80;99.90;;;;;;4945347;29;20035;-83
2022/07/27 03:22:04;;;;;;;0.32;0.30;;;15.80;99.90;;;;;;4946488;29;20019;-82
2022/07/27 03:24:29;;;;;;;0.20;0.20;;;15.80;99.90;;;;;;4946125;29;20043;-85
2022/07/27 03:26:55;;;;;;;0.10;0.10;;;15.80;99.90;;;;;;4925653;29;20032;-82
2022/07/27 03:29:21;;;;;;;0.00;0.00;;;15.80;99.90;;;;;;4915588;29;20054;-83
2022/07/27 03:31:46;;;;;;;0.10;0.10;;;15.80;99.90;;;;;;4943471;29;20301;-81
2022/07/27 03:34:12;;;;;;;0.10;0.10;;;15.80;99.90;;;;;;4944954;29;20039;-81
2022/07/27 03:36:38;;;;;;;0.10;0.10;;;15.70;99.90;;;;;;4927380;29;20023;-82
2022/07/27 03:39:03;;;;;;;0.07;0.07;;;15.70;99.90;;;;;;4944408;29;20095;-82
2022/07/27 03:41:29;;;;;;;0.00;0.00;;;15.70;99.90;;;;;;4943702;29;20251;-82
2022/07/27 03:43:55;;;;;;;0.37;0.20;;;15.70;99.90;;;;;;4944583;29;20512;-84
2022/07/27 03:46:20;;;;;;;0.63;0.43;;;15.60;99.90;;;;;;4943405;29;20089;-81
2022/07/27 03:48:46;;;;;;;0.10;0.10;;;15.60;99.90;;;;;;4944650;29;20039;-80
2022/07/27 03:51:12;;;;;;;0.20;0.20;;;15.50;99.90;;;;;;4940266;29;20739;-82
2022/07/27 03:53:38;;;;;;;0.30;0.30;;;15.60;99.90;;;;;;4945745;29;20392;-84
2022/07/27 03:56:04;;;;;;;0.13;0.13;;;15.60;99.90;;;;;;4944834;29;20034;-84
2022/07/27 03:58:29;;;;;;;0.28;0.28;;;15.50;99.90;;;;;;4943952;29;20035;-84
2022/07/27 04:00:55;;;;;;;0.10;0.10;;;15.50;99.90;;;;;;4943452;28;20106;-85
2022/07/27 04:03:21;;;;;;;2.73;1.20;;;15.40;99.90;;;;;;4942345;29;20062;-84
2022/07/27 04:05:46;;;;;;;0.20;0.20;;;15.30;99.90;;;;;;4943088;29;20626;-84
2022/07/27 04:08:12;;;;;;;0.10;0.10;;;15.30;99.90;;;;;;4942594;29;20435;-85
2022/07/27 04:10:37;;;;;;;0.10;0.10;;;15.40;99.90;;;;;;4944685;29;20410;-85
2022/07/27 04:13:03;;;;;;;0.38;0.38;;;15.50;99.90;;;;;;4943956;29;20521;-87
2022/07/27 04:15:29;;;;;;;0.65;0.65;;;15.00;99.90;;;;;;4945193;29;20074;-87
2022/07/27 04:17:54;;;;;;;0.07;0.07;;;15.20;99.90;;;;;;4944186;29;20075;-86
2022/07/27 04:20:20;;;;;;;1.10;0.93;;;15.20;99.90;;;;;;4943367;29;20079;-84
2022/07/27 04:22:47;;;;;;;0.10;0.10;;;15.30;99.90;;;;;;4945273;29;20027;-87
2022/07/27 04:25:12;;;;;;;0.30;0.30;;;15.30;99.90;;;;;;4929196;29;20402;-92
2022/07/27 04:27:38;;;;;;;0.10;0.10;;;15.20;99.90;;;;;;4912234;29;20028;-88
2022/07/27 04:30:04;;;;;;;0.37;0.30;;;15.20;99.90;;;;;;4927866;29;20038;-89
2022/07/27 04:32:30;;;;;;;0.08;0.08;;;15.30;99.90;;;;;;4949727;29;20111;-89
2022/07/27 04:34:56;;;;;;;0.10;0.10;;;15.30;99.90;;;;;;4932069;29;20174;-87
2022/07/27 04:37:21;;;;;;;0.13;0.13;;;15.50;99.90;;;;;;4946286;29;20031;-93
2022/07/27 04:39:47;;;;;;;0.20;0.20;;;15.40;99.90;;;;;;4948961;28;20043;-96
2022/07/27 04:42:13;;;;;;;0.10;0.10;;;15.40;99.90;;;;;;4936425;29;20086;-93
2022/07/27 04:44:38;;;;;;;0.10;0.10;;;15.30;99.90;;;;;;4930836;29;20027;-94
2022/07/27 04:47:04;;;;;;;0.00;0.00;;;15.50;99.90;;;;;;4935226;29;20118;-92
2022/07/27 04:49:30;;;;;;;0.30;0.30;;;15.90;99.90;;;;;;4950190;29;20027;-92
2022/07/27 04:51:56;;;;;;;0.47;0.20;;;16.40;99.90;;;;;;4943849;29;20537;-83
2022/07/27 04:54:21;;;;;;;0.10;0.10;;;16.60;99.90;;;;;;4945423;29;20419;-83
2022/07/27 04:56:47;;;;;;;0.38;0.38;;;17.00;99.90;;;;;;4929526;29;20126;-83
2022/07/27 04:59:13;;;;;;;0.10;0.10;;;17.00;99.90;;;;;;4945146;28;20522;-84
2022/07/27 05:01:38;;;;;;;0.57;0.30;;;16.50;99.90;;;;;;4945364;28;20040;-83
2022/07/27 05:04:04;;;;;;;0.23;0.23;;;16.10;99.90;;;;;;4930328;29;20031;-87
2022/07/27 05:06:31;;;;;;;0.50;0.50;;;16.00;99.90;;;;;;4946528;29;20050;-87
2022/07/27 05:08:58;;;;;;;0.20;0.10;;;15.90;99.90;;;;;;4930253;29;20882;-85
2022/07/27 05:11:24;;;;;;;0.25;0.25;;;15.90;99.90;;;;;;4929790;29;20027;-89
2022/07/27 05:13:49;;;;;;;0.10;0.10;;;15.80;99.90;;;;;;4930544;29;20055;-88
2022/07/27 05:16:15;;;;;;;0.05;0.05;;;16.00;99.90;;;;;;4947788;29;20031;-86
2022/07/27 05:18:41;;;;;;;0.10;0.10;;;16.00;99.90;;;;;;4929305;29;20043;-85
2022/07/27 05:21:09;;;;;;;0.00;0.00;;;16.10;99.90;;;;;;4947007;29;20035;-81
2022/07/27 05:23:35;;;;;;;0.00;0.00;;;16.00;99.90;;;;;;4946617;28;20090;-80
2022/07/27 05:26:01;;;;;;;0.20;0.20;;;16.20;99.90;;;;;;4920671;29;20031;-81
2022/07/27 05:28:27;;;;;;;0.10;0.10;;;16.20;99.90;;;;;;4947555;29;20582;-81
2022/07/27 05:30:52;;;;;;;0.10;0.10;;;16.30;99.90;;;;;;4947809;29;20146;-81
2022/07/27 05:33:18;;;;;;;0.30;0.30;;;16.60;99.90;;;;;;4929652;29;20082;-81
2022/07/27 05:35:44;;;;;;;0.15;0.15;;;16.70;99.90;;;;;;4945974;29;20518;-81
2022/07/27 05:38:09;;;;;;;0.27;0.27;;;17.90;99.90;;;;;;4946127;29;20031;-85
2022/07/27 05:40:35;;;;;;;0.00;0.00;;;17.90;99.90;;;;;;4947727;29;20086;-77
2022/07/27 05:43:01;;;;;;;0.10;0.10;;;17.30;99.90;;;;;;4927220;29;20039;-77
2022/07/27 05:45:26;;;;;;;0.10;0.10;;;17.00;99.90;;;;;;4943546;29;20122;-78
2022/07/27 05:47:53;;;;;;;0.10;0.10;;;16.80;99.90;;;;;;4931559;29;20036;-81
2022/07/27 05:50:19;;;;;;;0.10;0.10;;;16.90;99.90;;;;;;4947770;29;20023;-78
2022/07/27 05:52:45;;;;;;;0.25;0.25;;;16.50;99.90;;;;;;4947628;28;20093;-78
2022/07/27 05:55:11;;;;;;;0.10;0.10;;;16.60;99.90;;;;;;4948816;29;20027;-77
2022/07/27 05:57:39;;;;;;;0.15;0.15;;;16.60;99.90;;;;;;4948114;29;20107;-78
2022/07/27 06:00:06;;;;;;;0.35;0.35;;;17.20;99.90;;;;;;4954322;28;20027;-78
2022/07/27 06:02:32;;;;;;;0.28;0.28;;;17.00;99.90;;;;;;4946811;29;20047;-77
2022/07/27 06:04:58;;;;;;;0.20;0.20;;;16.90;99.90;;;;;;4947396;29;20038;-78
2022/07/27 06:10:08;;;;;;;0.00;0.00;;;16.80;99.90;;;;;;4947956;29;20038;-79
2022/07/27 06:12:41;;;;;;;0.10;0.10;;;16.30;99.90;;;;;;4947101;29;20042;-77
2022/07/27 06:15:08;;;;;;;0.00;0.00;;;16.70;99.90;;;;;;4928862;29;20046;-78
2022/07/27 06:17:35;;;;;;;0.20;0.20;;;17.30;99.90;;;;;;4946826;28;20578;-77
2022/07/27 06:20:02;;;;;;;0.10;0.10;;;17.80;99.90;;;;;;4947028;29;20035;-77
2022/07/27 06:22:28;;;;;;;0.03;0.03;;;19.70;97.20;;;;;;4945866;29;20065;-77
2022/07/27 06:24:53;;;;;;;0.10;0.10;;;18.90;97.60;;;;;;4942869;29;20110;-76
2022/07/27 06:27:19;;;;;;;0.00;0.00;;;21.70;93.00;;;;;;4945755;29;20035;-79
2022/07/27 06:29:45;;;;;;;0.00;0.00;;;20.40;91.70;;;;;;4947226;29;20056;-79
2022/07/27 06:32:10;;;;;;;0.20;0.20;;;21.30;87.40;;;;;;4929839;29;20117;-78
2022/07/27 06:34:36;;;;;;;0.00;0.00;;;19.70;91.50;;;;;;4947863;29;20475;-79
2022/07/27 06:37:03;;;;;;;0.00;0.00;;;19.20;93.00;;;;;;4947168;29;20565;-79
2022/07/27 06:39:28;;;;;;;0.20;0.20;;;19.00;93.70;;;;;;4947476;29;20062;-79
2022/07/27 06:41:55;;;;;;;0.10;0.10;;;19.40;94.10;;;;;;4947639;29;20066;-79
2022/07/27 06:44:21;;;;;;;0.25;0.15;;;19.70;92.70;;;;;;4945993;29;20035;-79
2022/07/27 06:46:46;;;;;;;0.10;0.10;;;19.80;92.30;;;;;;4945883;29;20094;-79
2022/07/27 06:49:12;;;;;;;0.00;0.00;;;19.50;93.10;;;;;;4946497;29;20035;-79
2022/07/27 06:51:38;;;;;;;0.33;0.33;;;19.60;92.10;;;;;;4946696;29;20055;-78
2022/07/27 06:54:05;;;;;;;0.00;0.00;;;19.70;92.30;;;;;;4946464;29;20289;-79
2022/07/27 06:56:31;;;;;;;0.32;0.32;;;20.40;91.40;;;;;;4946249;29;20034;-79
2022/07/27 06:58:57;;;;;;;0.00;0.00;;;20.30;90.60;;;;;;4945995;29;20035;-80
2022/07/27 07:01:23;;;;;;;0.00;0.00;;;20.30;90.40;;;;;;4945549;29;20557;-79
2022/07/27 07:03:48;;;;;;;0.20;0.20;;;22.30;85.60;;;;;;4945353;28;20121;-79
2022/07/27 07:06:14;;;;;;;0.00;0.00;;;24.30;77.10;;;;;;4945518;29;20388;-79
2022/07/27 07:08:40;;;;;;;0.00;0.00;;;22.50;78.40;;;;;;4945256;29;20149;-78
2022/07/27 07:11:08;;;;;;;0.00;0.00;;;23.10;79.70;;;;;;4945825;29;20031;-79
2022/07/27 07:13:33;;;;;;;0.00;0.00;;;25.20;73.90;;;;;;4945475;29;20039;-79
2022/07/27 07:15:59;;;;;;;0.47;0.20;;;28.10;65.20;;;;;;4945509;29;20053;-80
2022/07/27 07:18:25;;;;;;;0.17;0.17;;;28.00;62.40;;;;;;4911208;29;20047;-79
2022/07/27 07:20:50;;;;;;;0.00;0.00;;;29.30;60.20;;;;;;4931610;29;20035;-79
2022/07/27 07:23:16;;;;;;;0.00;0.00;;;29.20;59.20;;;;;;4946161;29;20078;-79
2022/07/27 07:25:42;;;;;;;2.63;1.25;;;27.00;61.40;;;;;;4926834;29;20075;-79
2022/07/27 07:28:08;;;;;;;0.00;0.00;;;24.60;65.60;;;;;;4946194;29;20031;-79
2022/07/27 07:30:34;;;;;;;0.00;0.00;;;25.00;66.80;;;;;;4946097;28;20027;-79
2022/07/27 07:33:00;;;;;;;;;;;23.90;70.90;;;;;;4946496;28;20470;-79
2022/07/27 07:35:26;;;;;;;0.10;0.10;;;23.50;70.60;;;;;;4945826;28;19910;-78
2022/07/27 07:37:52;;;;;;;0.20;0.20;;;27.60;64.20;;;;;;4946375;29;20419;-79
2022/07/27 07:40:18;;;;;;;0.00;0.00;;;29.40;60.20;;;;;;4946249;28;20063;-79
2022/07/27 07:42:51;;;;;;;0.00;0.00;;;29.80;57.70;;;;;;4946181;28;20031;-79
2022/07/27 07:45:17;;;;;;;0.10;0.10;;;29.60;57.30;;;;;;4946198;29;20108;-80
2022/07/27 07:47:43;;;;;;;0.10;0.10;;;25.70;61.20;;;;;;4946021;29;20027;-79
2022/07/27 07:50:09;;;;;;;0.00;0.00;;;24.20;67.00;;;;;;4946298;29;20093;-84
2022/07/27 07:52:35;;;;;;;0.00;0.00;;;24.00;68.00;;;;;;4945769;28;20039;-83
2022/07/27 07:55:00;;;;;;;0.10;0.10;;;23.30;69.00;;;;;;4946049;29;20034;-83
2022/07/27 07:57:26;;;;;;;0.27;0.27;;;23.00;69.70;;;;;;4944452;29;20102;-84
2022/07/27 07:59:52;;;;;;;0.00;0.00;;;23.00;70.30;;;;;;4952745;28;20035;-84
2022/07/27 08:02:19;;;;;;;0.03;0.03;;;24.40;67.90;;;;;;4944261;29;20043;-84
2022/07/27 08:04:45;;;;;;;0.00;0.00;;;23.70;68.70;;;;;;4945925;28;20082;-82
2022/07/27 08:07:11;;;;;;;0.17;0.10;;;23.10;70.20;;;;;;4946112;28;20027;-84
2022/07/27 08:09:37;;;;;;;0.10;0.00;;;23.20;70.30;;;;;;4946137;28;20033;-83
2022/07/27 08:12:03;;;;;;;0.00;0.00;;;23.60;69.70;;;;;;4945985;29;20023;-83
2022/07/27 08:14:28;;;;;;;0.00;0.00;;;23.60;70.40;;;;;;4945351;28;20114;-84
2022/07/27 08:16:54;;;;;;;0.13;0.13;;;23.50;69.60;;;;;;4949157;29;20066;-84
2022/07/27 08:19:20;;;;;;;0.00;0.00;;;24.80;67.80;;;;;;4950159;29;20143;-84
2022/07/27 08:21:45;;;;;;;0.10;0.10;;;27.30;62.50;;;;;;4949170;29;20097;-84
2022/07/27 08:24:11;;;;;;;0.00;0.00;;;27.00;62.10;;;;;;4949276;29;20217;-85
2022/07/27 08:26:36;;;;;;;0.00;0.00;;;27.30;61.60;;;;;;4949360;29;20078;-85
2022/07/27 08:29:02;;;;;;;1.15;0.20;;;30.80;56.40;;;;;;4949450;29;20042;-84
2022/07/27 08:31:28;;;;;;;2.42;0.43;;;31.40;54.00;;;;;;4949794;29;20035;-84
2022/07/27 08:33:53;;;;;;;0.00;0.00;;;28.90;56.30;;;;;;4949387;29;20074;-83
2022/07/27 08:36:19;;;;;;;0.00;0.00;;;27.90;59.80;;;;;;4949039;29;20407;-85
2022/07/27 08:38:45;;;;;;;0.00;0.00;;;29.20;57.30;;;;;;4931654;29;20083;-85
2022/07/27 08:41:12;;;;;;;0.28;0.22;;;32.10;54.70;;;;;;4931602;29;20035;-84
2022/07/27 08:43:41;;;;;;;0.00;0.00;;;33.10;51.70;;;;;;4948633;29;20134;-83
2022/07/27 08:46:09;;;;;;;0.00;0.00;;;33.50;50.50;;;;;;4949006;29;20038;-85
2022/07/27 08:48:37;;;;;;;0.73;0.28;;;32.80;50.00;;;;;;4923977;29;20090;-82
2022/07/27 08:51:06;;;;;;;0.00;0.00;;;33.10;50.00;;;;;;4948689;29;20035;-79
2022/07/27 08:53:32;;;;;;;0.00;0.00;;;33.70;49.70;;;;;;4948114;29;20380;-78
2022/07/27 08:55:58;;;;;;;0.00;0.00;;;34.60;49.40;;;;;;4947587;29;20027;-79
2022/07/27 08:58:24;;;;;;;0.03;0.00;;;34.30;49.10;;;;;;4948066;29;20029;-79
2022/07/27 09:00:50;;;;;;;0.00;0.00;;;35.10;48.70;;;;;;4933607;29;20065;-78
2022/07/27 09:03:18;;;;;;;0.00;0.00;;;35.90;46.70;;;;;;4948515;29;20542;-79
2022/07/27 09:05:46;;;;;;;0.00;0.00;;;36.20;47.00;;;;;;4946619;29;20027;-79
2022/07/27 09:08:22;;;;;;;0.47;0.20;;;35.30;45.80;;;;;;4948375;29;20407;-78
2022/07/27 09:10:49;;;;;;;0.10;0.10;;;34.60;44.20;;;;;;4946565;29;20035;-78
2022/07/27 09:13:28;;;;;;;0.00;0.00;;;34.10;43.00;;;;;;4948141;29;20821;-78
2022/07/27 09:16:06;;;;;;;0.00;0.00;;;34.60;43.70;;;;;;4930434;29;20054;-79
2022/07/27 09:18:32;;;;;;;0.32;0.10;;;35.30;44.30;;;;;;4931131;29;20133;-78
2022/07/27 09:21:20;;;;;;;0.28;0.05;;;36.10;42.40;;;;;;4947575;29;20027;-77
2022/07/27 09:23:51;;;;;;;0.08;0.08;;;37.10;41.40;;;;;;4930091;29;20328;-80
2022/07/27 09:26:18;;;;;;;0.10;0.10;;;34.00;42.70;;;;;;4946033;28;20023;-79
2022/07/27 09:28:46;;;;;;;0.10;0.10;;;29.00;46.20;;;;;;4947014;29;20845;-80
2022/07/27 09:31:14;;;;;;;0.00;0.00;;;27.70;48.20;;;;;;4947764;29;20027;-80
2022/07/27 09:33:48;;;;;;;0.00;0.00;;;26.80;49.30;;;;;;4947310;29;20031;-78
2022/07/27 09:36:16;;;;;;;0.00;0.00;;;27.70;46.40;;;;;;4945520;29;20065;-82
2022/07/27 09:39:01;;;;;;;0.00;0.00;;;27.70;47.60;;;;;;4947325;29;20019;-79
2022/07/27 09:41:47;;;;;;;0.30;0.00;;;27.70;47.20;;;;;;4947438;29;20089;-79
2022/07/27 09:44:14;;;;;;;0.00;0.00;;;27.90;48.10;;;;;;4947172;29;20565;-82
2022/07/27 09:46:41;;;;;;;0.08;0.08;;;28.10;50.50;;;;;;4946893;29;20049;-80
2022/07/27 09:49:27;;;;;;;0.00;0.00;;;28.80;51.50;;;;;;4946756;29;20231;-80
2022/07/27 09:51:55;;;;;;;0.00;0.00;;;29.30;52.10;;;;;;4946766;29;20063;-80
2022/07/27 09:54:21;;;;;;;0.00;0.00;;;28.90;50.90;;;;;;4946498;29;20034;-80
2022/07/27 09:56:58;;;;;;;0.08;0.08;;;28.40;51.70;;;;;;4946187;29;20027;-80
2022/07/27 09:59:23;;;;;;;0.03;0.03;;;28.40;51.10;;;;;;4947362;28;20130;-80
2022/07/27 10:01:49;;;;;;;0.00;0.00;;;27.50;49.40;;;;;;4924553;29;20471;-80
2022/07/27 10:04:15;;;;;;;0.00;0.00;;;28.50;48.90;;;;;;4946473;29;20033;-80
2022/07/27 10:06:42;;;;;;;0.00;0.00;;;27.10;50.10;;;;;;4945602;29;20047;-80
2022/07/27 10:09:07;;;;;;;;;;;28.10;51.10;;;;;;4946423;29;20525;-80
2022/07/27 10:11:34;;;;;;;0.00;0.00;;;32.40;45.60;;;;;;4945685;29;19958;-79
2022/07/27 10:13:59;;;;;;;0.00;0.00;;;34.20;45.50;;;;;;4946801;29;20422;-80
2022/07/27 10:16:28;;;;;;;0.00;0.00;;;35.10;43.40;;;;;;4928948;29;20746;-80
2022/07/27 10:19:17;;;;;;;0.10;0.10;;;32.70;43.00;;;;;;4946240;29;20078;-80
2022/07/27 10:21:44;;;;;;;0.00;0.00;;;28.80;46.70;;;;;;4944598;29;20075;-78
2022/07/27 10:24:31;;;;;;;0.00;0.00;;;28.90;49.60;;;;;;4946528;29;20035;-79
2022/07/27 10:26:57;;;;;;;0.00;0.00;;;33.90;45.00;;;;;;4946644;29;20031;-78
2022/07/27 10:29:24;;;;;;;0.00;0.00;;;34.80;42.90;;;;;;4945290;29;20031;-78
2022/07/27 10:31:53;;;;;;;0.00;0.00;;;34.90;42.80;;;;;;4951011;29;20057;-79
2022/07/27 10:34:39;;;;;;;0.00;0.00;;;34.60;41.30;;;;;;4952151;29;20031;-79
2022/07/27 10:37:11;;;;;;;0.00;0.00;;;31.90;42.40;;;;;;4946952;29;20031;-79
2022/07/27 10:39:48;;;;;;;0.30;0.30;;;31.80;42.40;;;;;;4946044;28;20063;-79
2022/07/27 10:42:23;;;;;;;0.00;0.00;;;29.60;44.40;;;;;;4947022;29;20538;-79
2022/07/27 10:44:58;;;;;;;0.20;0.13;;;29.80;46.40;;;;;;4946961;29;20028;-79
2022/07/27 10:47:36;;;;;;;0.00;0.00;;;29.30;46.50;;;;;;4929578;29;20092;-79
2022/07/27 10:50:23;;;;;;;0.75;0.35;;;28.10;47.60;;;;;;4946994;29;20032;-79
2022/07/27 10:52:56;;;;;;;0.03;0.03;;;28.00;47.70;;;;;;4946169;29;20050;-78
2022/07/27 10:55:31;;;;;;;;;;;;;;;;;;;;;
2022/07/27 10:58:17;;;;;;;0.00;0.00;;;27.70;48.30;;;;;;4946010;29;20102;-80
2022/07/27 11:00:48;;;;;;;;;;;27.00;48.20;;;;;;4945802;29;20039;-79
2022/07/27 11:03:20;;;;;;;0.13;0.10;;;27.40;49.20;;;;;;4928331;29;19914;-79
2022/07/27 11:06:07;;;;;;;2.10;0.38;;;27.10;48.10;;;;;;4945244;29;20046;-79
2022/07/27 11:08:38;;;;;;;0.10;0.10;;;27.40;48.90;;;;;;4946140;29;20069;-79
2022/07/27 11:11:05;;;;;;;0.08;0.08;;;27.20;48.30;;;;;;4944393;29;20122;-78
2022/07/27 11:13:31;;;;;;;0.00;0.00;;;26.80;49.00;;;;;;4925890;29;20495;-78
2022/07/27 11:16:10;;;;;;;0.47;0.10;;;26.90;49.30;;;;;;4944506;29;20074;-78
2022/07/27 11:18:38;;;;;;;0.20;0.17;;;26.90;49.60;;;;;;4913334;29;20042;-78
2022/07/27 11:21:22;;;;;;;0.20;0.20;;;26.70;50.60;;;;;;4946194;29;20127;-78
2022/07/27 11:24:12;;;;;;;0.00;0.00;;;27.40;53.10;;;;;;4945841;29;20043;-77
2022/07/27 11:26:43;;;;;;;0.22;0.10;;;27.40;51.40;;;;;;4945142;29;20042;-78
2022/07/27 11:29:11;;;;;;;0.28;0.15;;;27.50;51.70;;;;;;4926974;28;20036;-79
2022/07/27 11:31:38;;;;;;;0.00;0.00;;;27.50;50.00;;;;;;4945089;29;20023;-78
2022/07/27 11:34:04;;;;;;;0.20;0.20;;;27.50;51.70;;;;;;4945125;29;20035;-78
2022/07/27 11:36:37;;;;;;;0.00;0.00;;;27.10;49.40;;;;;;4912415;29;20460;-78
2022/07/27 11:39:05;;;;;;;0.00;0.00;;;26.60;50.30;;;;;;4915382;29;20035;-78
2022/07/27 11:41:32;;;;;;;0.00;0.00;;;26.20;50.80;;;;;;4945335;29;20775;-78
2022/07/27 11:44:01;;;;;;;0.00;0.00;;;26.20;50.90;;;;;;4945280;29;20043;-78
2022/07/27 11:46:30;;;;;;;0.15;0.15;;;26.30;51.30;;;;;;4943083;29;20024;-78
2022/07/27 11:49:01;;;;;;;0.00;0.00;;;26.30;51.10;;;;;;4944869;29;20114;-78
2022/07/27 11:51:28;;;;;;;0.00;0.00;;;26.00;51.50;;;;;;4942743;29;20030;-78
2022/07/27 11:54:02;;;;;;;0.10;0.10;;;25.90;50.90;;;;;;4945347;29;20496;-78
2022/07/27 11:56:33;;;;;;;0.00;0.00;;;26.00;50.50;;;;;;4916067;29;20630;-78
2022/07/27 11:59:05;;;;;;;0.08;0.00;;;26.20;51.30;;;;;;4948141;28;20074;-78
2022/07/27 12:01:38;;;;;;;0.10;0.00;;;26.20;50.30;;;;;;4949529;28;20162;-80
2022/07/27 12:04:12;;;;;;;0.00;0.00;;;26.40;51.30;;;;;;4946438;29;20031;-77
2022/07/27 12:06:40;;;;;;;0.00;0.00;;;26.10;51.20;;;;;;4944025;29;20027;-78
2022/07/27 12:09:08;;;;;;;0.10;0.10;;;26.50;51.50;;;;;;4945481;29;20032;-77
2022/07/27 12:12:13;;;;;;;0.03;0.00;;;26.50;53.60;;;;;;4945439;29;20058;-77
2022/07/27 12:14:49;;;;;;;0.00;0.00;;;26.70;51.60;;;;;;4927366;29;20083;-78
2022/07/27 12:17:24;;;;;;;0.05;0.05;;;26.60;52.40;;;;;;4944069;29;20467;-78
2022/07/27 12:19:56;;;;;;;0.05;0.00;;;26.40;50.10;;;;;;4945655;29;20067;-78
2022/07/27 12:22:38;;;;;;;0.10;0.10;;;26.00;49.00;;;;;;4943405;28;20042;-77
2022/07/27 12:25:10;;;;;;;0.00;0.00;;;25.80;49.50;;;;;;4931104;29;20035;-78
2022/07/27 12:27:36;;;;;;;0.00;0.00;;;26.10;50.70;;;;;;4945964;29;20107;-78
2022/07/27 12:30:11;;;;;;;0.13;0.13;;;26.40;52.10;;;;;;4946089;29;20049;-78
2022/07/27 12:32:41;;;;;;;0.00;0.00;;;26.10;51.00;;;;;;4943836;29;20526;-77
2022/07/27 12:35:45;;;;;;;0.00;0.00;;;26.60;51.20;;;;;;4945510;29;20503;-78
2022/07/27 12:38:11;;;;;;;0.00;0.00;;;26.40;50.60;;;;;;4940885;29;20110;-78
2022/07/27 12:40:52;;;;;;;8.60;0.30;;;26.20;49.40;;;;;;4927963;29;20031;-78
2022/07/27 12:43:20;;;;;;;0.00;0.00;;;25.70;50.20;;;;;;4945117;29;20035;-78
2022/07/27 12:45:48;;;;;;;0.03;0.03;;;25.90;49.60;;;;;;4945463;29;20035;-78
2022/07/27 12:48:19;;;;;;;0.75;0.20;;;25.70;50.20;;;;;;4945073;29;20511;-78
2022/07/27 12:50:55;;;;;;;0.00;0.00;;;25.80;49.70;;;;;;4944078;29;20035;-84
2022/07/27 12:53:21;;;;;;;0.00;0.00;;;25.90;50.70;;;;;;4944454;29;20035;-84
2022/07/27 12:55:47;;;;;;;0.00;0.00;;;26.10;50.40;;;;;;4944527;29;20399;-82
2022/07/27 12:58:13;;;;;;;0.00;0.00;;;26.40;52.80;;;;;;4944322;29;20031;-82
2022/07/27 13:00:40;;;;;;;0.00;0.00;;;26.40;51.30;;;;;;4945949;28;20046;-82